createdAt,value
2022-09-04T00:01:04.896Z,15.72
2022-09-04T00:03:36.512Z,15.69
2022-09-04T00:06:08.359Z,15.69
2022-09-04T00:08:39.887Z,15.70
2022-09-04T00:11:12.121Z,15.65
2022-09-04T00:13:43.806Z,15.67
2022-09-04T00:16:15.693Z,15.64
2022-09-04T00:18:47.235Z,15.58
2022-09-04T00:21:21.789Z,15.54
2022-09-04T00:23:53.326Z,15.55
2022-09-04T00:26:25.193Z,15.54
2022-09-04T00:28:56.710Z,15.55
2022-09-04T00:31:29.311Z,15.52
2022-09-04T00:34:01.211Z,15.51
2022-09-04T00:36:32.750Z,15.48
2022-09-04T00:39:04.670Z,15.44
2022-09-04T00:41:36.198Z,15.43
2022-09-04T00:44:08.259Z,15.44
2022-09-04T00:46:39.767Z,15.40
2022-09-04T00:49:11.988Z,15.40
2022-09-04T00:51:43.520Z,15.43
2022-09-04T00:54:15.368Z,15.41
2022-09-04T00:56:46.900Z,15.39
2022-09-04T00:59:18.449Z,15.36
2022-09-04T01:01:51.818Z,15.37
2022-09-04T01:04:24.889Z,15.33
2022-09-04T01:06:56.415Z,15.32
2022-09-04T01:09:31.387Z,15.25
2022-09-04T01:12:02.903Z,15.29
2022-09-04T01:14:38.880Z,15.29
2022-09-04T01:17:10.402Z,15.25
2022-09-04T01:19:42.380Z,15.24
2022-09-04T01:22:13.895Z,15.21
2022-09-04T01:24:45.857Z,15.19
2022-09-04T01:27:17.914Z,15.15
2022-09-04T01:29:50.217Z,15.15
2022-09-04T01:32:21.721Z,15.13
2022-09-04T01:34:53.558Z,15.08
2022-09-04T01:37:25.089Z,15.05
2022-09-04T01:39:57.279Z,15.03
2022-09-04T01:42:28.828Z,14.99
2022-09-04T01:45:00.864Z,14.98
2022-09-04T01:47:32.384Z,14.99
2022-09-04T01:50:04.726Z,14.97
2022-09-04T01:52:36.726Z,14.92
2022-09-04T01:55:08.762Z,14.90
2022-09-04T01:57:40.294Z,14.88
2022-09-04T02:00:11.972Z,14.84
2022-09-04T02:02:44.123Z,14.79
2022-09-04T02:05:18.082Z,14.80
2022-09-04T02:07:49.598Z,14.77
2022-09-04T02:10:21.459Z,14.74
2022-09-04T02:12:52.977Z,14.70
2022-09-04T02:15:26.604Z,14.69
2022-09-04T02:17:58.121Z,14.68
2022-09-04T02:20:30.131Z,14.65
2022-09-04T02:23:01.734Z,14.62
2022-09-04T02:25:33.687Z,14.58
2022-09-04T02:28:05.197Z,14.59
2022-09-04T02:30:37.168Z,14.56
2022-09-04T02:33:08.736Z,14.60
2022-09-04T02:35:40.673Z,14.55
2022-09-04T02:38:12.191Z,14.55
2022-09-04T02:40:44.289Z,14.51
2022-09-04T02:43:16.375Z,14.55
2022-09-04T02:45:48.209Z,14.56
2022-09-04T02:48:19.765Z,14.61
2022-09-04T02:50:51.922Z,14.61
2022-09-04T02:53:23.432Z,14.66
2022-09-04T02:55:55.204Z,14.72
2022-09-04T02:58:27.108Z,14.75
2022-09-04T03:00:58.737Z,14.74
2022-09-04T03:03:30.666Z,14.80
2022-09-04T03:06:02.185Z,14.84
2022-09-04T03:08:34.414Z,14.80
2022-09-04T03:11:08.783Z,14.82
2022-09-04T03:13:40.703Z,14.85
2022-09-04T03:16:12.249Z,14.80
2022-09-04T03:18:44.077Z,14.77
2022-09-04T03:21:16.528Z,14.78
2022-09-04T03:23:48.558Z,14.76
2022-09-04T03:26:20.162Z,14.78
2022-09-04T03:28:52.031Z,14.75
2022-09-04T03:31:23.689Z,14.74
2022-09-04T03:33:55.275Z,14.75
2022-09-04T03:36:26.777Z,14.67
2022-09-04T03:39:02.903Z,14.67
2022-09-04T03:41:34.440Z,14.65
2022-09-04T03:44:06.405Z,14.62
2022-09-04T03:46:38.011Z,14.63
2022-09-04T03:49:09.662Z,14.62
2022-09-04T03:51:41.172Z,14.61
2022-09-04T03:54:13.143Z,14.58
2022-09-04T03:56:44.687Z,14.60
2022-09-04T03:59:16.322Z,14.57
2022-09-04T04:01:47.875Z,14.57
2022-09-04T04:04:20.175Z,14.53
2022-09-04T04:06:52.869Z,14.54
2022-09-04T04:09:24.409Z,14.57
2022-09-04T04:11:55.947Z,14.46
2022-09-04T04:14:27.932Z,14.52
2022-09-04T04:17:00.138Z,14.44
2022-09-04T04:19:33.711Z,14.46
2022-09-04T04:22:05.251Z,14.41
2022-09-04T04:24:39.562Z,14.34
2022-09-04T04:27:11.086Z,14.29
2022-09-04T04:29:43.103Z,14.28
2022-09-04T04:32:14.658Z,14.27
2022-09-04T04:34:46.692Z,14.24
2022-09-04T04:37:18.201Z,14.24
2022-09-04T04:39:50.212Z,14.20
2022-09-04T04:42:22.190Z,14.20
2022-09-04T04:45:12.197Z,14.12
2022-09-04T04:47:45.284Z,14.15
2022-09-04T04:50:16.831Z,14.11
2022-09-04T04:52:50.090Z,14.09
2022-09-04T04:55:22.094Z,14.10
2022-09-04T04:57:53.944Z,13.99
2022-09-04T05:00:27.632Z,14.01
2022-09-04T05:03:01.035Z,14.03
2022-09-04T05:05:33.726Z,14.10
2022-09-04T05:08:08.399Z,14.11
2022-09-04T05:10:40.247Z,14.10
2022-09-04T05:13:12.339Z,14.15
2022-09-04T05:15:58.462Z,14.17
2022-09-04T05:18:35.681Z,14.22
2022-09-04T05:21:07.190Z,14.28
2022-09-04T05:23:39.264Z,14.34
2022-09-04T05:26:10.764Z,14.38
2022-09-04T05:28:42.289Z,14.34
2022-09-04T05:31:14.106Z,14.43
2022-09-04T05:33:45.988Z,14.52
2022-09-04T05:36:17.588Z,14.60
2022-09-04T05:38:49.430Z,14.60
2022-09-04T05:41:20.951Z,14.69
2022-09-04T05:43:52.744Z,14.65
2022-09-04T05:46:24.336Z,14.70
2022-09-04T05:48:56.253Z,14.69
2022-09-04T05:51:27.753Z,14.75
2022-09-04T05:54:01.119Z,14.86
2022-09-04T05:56:32.711Z,14.93
2022-09-04T05:59:04.622Z,14.99
2022-09-04T06:01:36.350Z,14.93
2022-09-04T06:04:08.349Z,15.09
2022-09-04T06:06:40.661Z,14.94
2022-09-04T06:09:12.544Z,15.11
2022-09-04T06:11:44.139Z,15.53
2022-09-04T06:14:15.977Z,15.63
2022-09-04T06:16:47.567Z,15.76
2022-09-04T06:19:19.617Z,16.05
2022-09-04T06:21:51.154Z,16.08
2022-09-04T06:24:22.673Z,16.31
2022-09-04T06:26:54.171Z,16.43
2022-09-04T06:29:25.687Z,16.55
2022-09-04T06:31:57.680Z,16.43
2022-09-04T06:34:29.221Z,16.52
2022-09-04T06:37:01.080Z,16.72
2022-09-04T06:39:32.636Z,16.81
2022-09-04T06:42:04.582Z,16.85
2022-09-04T06:44:36.072Z,16.95
2022-09-04T06:47:08.020Z,16.84
2022-09-04T06:49:39.519Z,16.96
2022-09-04T06:52:11.145Z,17.12
2022-09-04T06:54:42.689Z,17.23
2022-09-04T06:57:14.545Z,17.41
2022-09-04T06:59:46.139Z,17.43
2022-09-04T07:02:18.209Z,17.59
2022-09-04T07:04:49.754Z,17.74
2022-09-04T07:07:21.435Z,17.78
2022-09-04T07:09:53.531Z,18.04
2022-09-04T07:12:25.560Z,18.39
2022-09-04T07:14:57.134Z,18.54
2022-09-04T07:17:28.677Z,18.80
2022-09-04T07:20:00.174Z,19.12
2022-09-04T07:22:31.696Z,19.29
2022-09-04T07:25:03.224Z,19.56
2022-09-04T07:27:36.180Z,19.49
2022-09-04T07:30:08.056Z,19.51
2022-09-04T07:32:39.873Z,19.47
2022-09-04T07:35:11.391Z,19.53
2022-09-04T07:37:44.284Z,19.70
2022-09-04T07:40:15.864Z,19.86
2022-09-04T07:42:48.628Z,19.82
2022-09-04T07:45:22.454Z,19.95
2022-09-04T07:47:55.515Z,19.92
2022-09-04T07:50:27.064Z,19.72
2022-09-04T07:53:02.668Z,19.84
2022-09-04T07:55:35.307Z,20.06
2022-09-04T07:58:07.863Z,20.12
2022-09-04T08:00:39.710Z,20.29
2022-09-04T08:03:12.415Z,20.46
2022-09-04T08:05:43.963Z,20.35
2022-09-04T08:08:15.929Z,20.76
2022-09-04T08:10:47.770Z,20.82
2022-09-04T08:13:19.325Z,20.40
2022-09-04T08:15:51.268Z,21.02
2022-09-04T08:18:22.812Z,21.56
2022-09-04T08:20:54.714Z,21.59
2022-09-04T08:23:26.213Z,21.45
2022-09-04T08:25:58.239Z,21.34
2022-09-04T08:28:33.421Z,21.24
2022-09-04T08:31:06.198Z,21.46
2022-09-04T08:33:37.786Z,21.68
2022-09-04T08:36:10.640Z,21.65
2022-09-04T08:38:42.141Z,21.57
2022-09-04T08:41:13.952Z,22.08
2022-09-04T08:43:45.472Z,22.13
2022-09-04T08:46:17.377Z,22.67
2022-09-04T08:48:48.965Z,22.93
2022-09-04T08:51:21.747Z,23.12
2022-09-04T08:53:53.296Z,23.04
2022-09-04T08:56:25.052Z,22.96
2022-09-04T08:58:56.569Z,22.76
2022-09-04T09:01:28.552Z,22.90
2022-09-04T09:04:00.119Z,23.21
2022-09-04T09:06:32.426Z,23.06
2022-09-04T09:09:03.962Z,23.67
2022-09-04T09:11:35.877Z,23.63
2022-09-04T09:14:07.375Z,23.53
2022-09-04T09:16:40.243Z,24.18
2022-09-04T09:19:12.031Z,23.93
2022-09-04T09:21:45.240Z,23.96
2022-09-04T09:24:16.754Z,24.14
2022-09-04T09:26:48.671Z,24.18
2022-09-04T09:29:20.212Z,24.07
2022-09-04T09:31:52.035Z,23.98
2022-09-04T09:34:23.888Z,24.18
2022-09-04T09:36:59.059Z,24.16
2022-09-04T09:39:30.606Z,23.20
2022-09-04T09:42:02.464Z,24.21
2022-09-04T09:44:33.973Z,24.48
2022-09-04T09:49:37.541Z,24.66
2022-09-04T09:52:10.147Z,24.59
2022-09-04T09:54:41.648Z,24.82
2022-09-04T09:57:13.596Z,24.91
2022-09-04T09:59:45.132Z,25.00
2022-09-04T10:02:17.020Z,25.11
2022-09-04T10:04:48.575Z,25.30
2022-09-04T10:07:21.561Z,25.44
2022-09-04T10:09:53.067Z,25.20
2022-09-04T10:12:24.947Z,25.88
2022-09-04T10:14:56.444Z,25.94
2022-09-04T10:17:28.266Z,26.06
2022-09-04T10:20:00.264Z,26.10
2022-09-04T10:22:32.148Z,26.46
2022-09-04T10:25:03.656Z,26.39
2022-09-04T10:27:35.474Z,26.47
2022-09-04T10:30:07.009Z,26.16
2022-09-04T10:32:38.812Z,26.34
2022-09-04T10:35:10.789Z,26.37
2022-09-04T10:37:42.629Z,26.43
2022-09-04T10:40:33.426Z,26.39
2022-09-04T10:43:09.760Z,26.81
2022-09-04T10:45:41.766Z,26.57
2022-09-04T10:48:13.306Z,26.78
2022-09-04T10:50:46.582Z,26.51
2022-09-04T10:53:20.672Z,26.26
2022-09-04T10:55:54.556Z,26.89
2022-09-04T10:58:27.691Z,27.22
2022-09-04T11:01:03.648Z,26.32
2022-09-04T11:03:35.309Z,26.98
2022-09-04T11:06:11.327Z,27.09
2022-09-04T11:08:42.841Z,27.16
2022-09-04T11:11:14.691Z,27.30
2022-09-04T11:13:51.082Z,27.08
2022-09-04T11:16:23.181Z,27.62
2022-09-04T11:18:54.758Z,26.94
2022-09-04T11:21:27.586Z,26.59
2022-09-04T11:23:59.126Z,26.31
2022-09-04T11:26:31.160Z,26.86
2022-09-04T11:29:02.681Z,26.81
2022-09-04T11:31:34.545Z,26.90
2022-09-04T11:34:06.111Z,26.54
2022-09-04T11:36:40.496Z,26.75
2022-09-04T11:39:12.041Z,27.14
2022-09-04T11:41:43.945Z,26.85
2022-09-04T11:44:15.799Z,26.97
2022-09-04T11:46:47.464Z,27.33
2022-09-04T11:49:20.508Z,27.73
2022-09-04T11:51:52.125Z,26.97
2022-09-04T11:54:24.505Z,26.73
2022-09-04T11:56:56.027Z,25.97
2022-09-04T11:59:28.020Z,26.24
2022-09-04T12:01:59.630Z,26.84
2022-09-04T12:04:32.084Z,26.46
2022-09-04T12:07:05.727Z,26.71
2022-09-04T12:09:37.613Z,26.53
2022-09-04T12:12:11.394Z,26.68
2022-09-04T12:14:43.488Z,26.82
2022-09-04T12:17:15.638Z,26.65
2022-09-04T12:19:47.539Z,26.41
2022-09-04T12:22:19.082Z,26.43
2022-09-04T12:24:50.946Z,26.26
2022-09-04T12:27:22.506Z,26.65
2022-09-04T12:29:54.427Z,26.61
2022-09-04T12:32:25.945Z,26.29
2022-09-04T12:34:57.800Z,26.47
2022-09-04T12:37:29.553Z,26.23
2022-09-04T12:40:01.477Z,26.65
2022-09-04T12:42:35.448Z,26.70
2022-09-04T12:45:07.397Z,26.58
2022-09-04T12:47:41.608Z,26.78
2022-09-04T12:50:16.338Z,26.57
2022-09-04T12:52:47.870Z,26.42
2022-09-04T12:55:19.827Z,26.35
2022-09-04T12:57:55.545Z,26.59
2022-09-04T13:00:31.805Z,26.31
2022-09-04T13:03:13.151Z,26.36
2022-09-04T13:05:49.762Z,26.34
2022-09-04T13:08:26.259Z,26.64
2022-09-04T13:11:01.241Z,26.35
2022-09-04T13:13:33.939Z,26.34
2022-09-04T13:16:05.855Z,26.61
2022-09-04T13:18:38.264Z,26.33
2022-09-04T13:21:10.292Z,26.65
2022-09-04T13:23:42.760Z,26.51
2022-09-04T13:26:20.688Z,26.09
2022-09-04T13:28:52.215Z,26.24
2022-09-04T13:31:23.800Z,26.14
2022-09-04T13:33:55.803Z,26.53
2022-09-04T13:36:28.543Z,26.87
2022-09-04T13:39:00.098Z,26.68
2022-09-04T13:41:33.628Z,26.68
2022-09-04T13:44:05.993Z,26.99
2022-09-04T13:46:37.656Z,26.98
2022-09-04T13:49:09.622Z,27.08
2022-09-04T13:51:43.083Z,26.75
2022-09-04T13:54:14.995Z,26.75
2022-09-04T13:56:46.504Z,26.92
2022-09-04T13:59:18.414Z,26.97
2022-09-04T14:01:50.259Z,26.96
2022-09-04T14:04:26.903Z,26.65
2022-09-04T14:07:00.007Z,27.10
2022-09-04T14:09:31.902Z,27.39
2022-09-04T14:12:03.414Z,27.62
2022-09-04T14:14:37.732Z,26.86
2022-09-04T14:17:09.621Z,26.67
2022-09-04T14:19:42.749Z,26.55
2022-09-04T14:22:14.987Z,26.99
2022-09-04T14:24:46.855Z,26.98
2022-09-04T14:27:19.240Z,26.53
2022-09-04T14:29:51.398Z,26.58
2022-09-04T14:32:22.918Z,27.00
2022-09-04T14:34:59.193Z,27.17
2022-09-04T14:37:30.747Z,27.04
2022-09-04T14:40:03.572Z,26.32
2022-09-04T14:42:35.137Z,26.70
2022-09-04T14:45:10.060Z,27.42
2022-09-04T14:47:44.516Z,28.08
2022-09-04T14:50:17.109Z,26.79
2022-09-04T14:52:48.638Z,26.50
2022-09-04T14:55:20.531Z,27.32
2022-09-04T14:57:52.154Z,27.77
2022-09-04T15:00:25.031Z,27.86
2022-09-04T15:02:56.556Z,28.10
2022-09-04T15:05:28.484Z,27.74
2022-09-04T15:08:00.011Z,27.54
2022-09-04T15:10:33.256Z,27.76
2022-09-04T15:13:05.461Z,27.36
2022-09-04T15:15:37.320Z,27.65
2022-09-04T15:18:10.805Z,27.37
2022-09-04T15:20:42.829Z,27.71
2022-09-04T15:23:14.813Z,27.89
2022-09-04T15:26:01.703Z,27.75
2022-09-04T15:28:38.737Z,27.67
2022-09-04T15:31:15.437Z,27.30
2022-09-04T15:33:48.349Z,27.32
2022-09-04T15:36:20.157Z,26.66
2022-09-04T15:38:52.306Z,26.15
2022-09-04T15:41:24.073Z,25.85
2022-09-04T15:43:56.058Z,25.47
2022-09-04T15:46:27.693Z,25.27
2022-09-04T15:48:59.725Z,25.33
2022-09-04T15:51:31.261Z,25.14
2022-09-04T15:54:03.214Z,24.95
2022-09-04T15:56:34.925Z,24.85
2022-09-04T15:59:06.767Z,24.63
2022-09-04T16:01:39.043Z,24.56
2022-09-04T16:04:13.058Z,24.43
2022-09-04T16:06:44.626Z,24.37
2022-09-04T16:09:16.466Z,24.35
2022-09-04T16:11:48.020Z,24.26
2022-09-04T16:14:19.987Z,24.27
2022-09-04T16:16:53.059Z,24.20
2022-09-04T16:19:24.906Z,24.09
2022-09-04T16:21:56.424Z,23.90
2022-09-04T16:24:30.007Z,23.69
2022-09-04T16:27:01.604Z,23.83
2022-09-04T16:29:36.799Z,23.95
2022-09-04T16:32:09.629Z,23.95
2022-09-04T16:34:41.492Z,23.83
2022-09-04T16:37:13.050Z,23.64
2022-09-04T16:39:44.994Z,23.78
2022-09-04T16:42:16.554Z,23.75
2022-09-04T16:44:48.446Z,23.67
2022-09-04T16:47:21.334Z,23.50
2022-09-04T16:49:53.113Z,22.78
2022-09-04T16:52:26.570Z,23.43
2022-09-04T16:54:58.513Z,23.40
2022-09-04T16:57:30.045Z,23.32
2022-09-04T17:00:01.992Z,23.28
2022-09-04T17:02:36.395Z,23.23
2022-09-04T17:05:08.476Z,23.18
2022-09-04T17:07:40.005Z,23.07
2022-09-04T17:10:11.779Z,22.93
2022-09-04T17:12:43.795Z,22.77
2022-09-04T17:15:15.281Z,22.77
2022-09-04T17:17:47.381Z,22.69
2022-09-04T17:20:18.974Z,22.68
2022-09-04T17:29:00.618Z,22.61
2022-09-04T17:29:11.494Z,22.51
2022-09-04T17:29:22.444Z,22.36
2022-09-04T17:31:26.026Z,22.27
2022-09-04T17:39:45.948Z,22.16
2022-09-04T17:40:39.585Z,22.08
2022-09-04T17:40:52.234Z,21.99
2022-09-04T17:42:34.837Z,21.84
2022-09-04T17:45:06.449Z,21.71
2022-09-04T17:47:43.027Z,21.56
2022-09-04T17:50:16.406Z,21.52
2022-09-04T17:52:48.260Z,21.39
2022-09-04T17:55:19.780Z,21.34
2022-09-04T17:57:51.876Z,21.26
2022-09-04T18:00:24.873Z,21.16
2022-09-04T18:02:56.534Z,21.11
2022-09-04T18:05:28.087Z,21.05
2022-09-04T18:08:09.086Z,20.98
2022-09-04T18:10:43.199Z,20.92
2022-09-04T18:13:36.551Z,20.87
2022-09-04T18:16:11.102Z,20.76
2022-09-04T18:18:42.937Z,20.72
2022-09-04T18:21:14.525Z,20.65
2022-09-04T18:23:51.640Z,20.58
2022-09-04T18:26:24.162Z,20.50
2022-09-04T18:28:56.732Z,20.45
2022-09-04T18:37:06.670Z,20.40
2022-09-04T18:37:20.595Z,20.32
2022-09-04T18:37:41.857Z,20.25
2022-09-04T18:40:12.798Z,20.16
2022-09-04T18:50:21.796Z,20.10
2022-09-04T18:50:31.685Z,19.97
2022-09-04T18:50:50.871Z,20.06
2022-09-04T18:51:24.939Z,19.91
2022-09-04T18:53:57.280Z,19.84
2022-09-04T18:56:28.874Z,19.79
2022-09-04T18:59:00.797Z,19.74
2022-09-04T19:01:32.754Z,19.71
2022-09-04T19:04:18.867Z,19.67
2022-09-04T19:06:51.112Z,19.63
2022-09-04T19:09:23.780Z,19.55
2022-09-04T19:11:55.336Z,19.54
2022-09-04T19:14:30.081Z,19.46
2022-09-04T19:17:01.708Z,19.44
2022-09-04T19:19:36.429Z,19.41
2022-09-04T19:22:09.545Z,19.41
2022-09-04T19:24:47.164Z,19.35
2022-09-04T19:27:18.825Z,19.31
2022-09-04T19:30:03.403Z,19.30
2022-09-04T19:32:49.693Z,19.22
2022-09-04T19:35:21.908Z,19.15
2022-09-04T19:43:29.131Z,19.16
2022-09-04T19:46:11.145Z,19.10
2022-09-04T19:46:11.849Z,19.08
2022-09-04T19:46:40.027Z,19.04
2022-09-04T19:52:36.812Z,19.01
2022-09-04T19:53:30.955Z,18.94
2022-09-04T19:54:59.972Z,18.86
2022-09-04T19:57:47.615Z,18.84
2022-09-04T20:00:38.307Z,18.80
2022-09-04T20:03:11.602Z,18.75
2022-09-04T20:05:57.815Z,18.73
2022-09-04T20:08:32.347Z,18.66
2022-09-04T20:11:04.003Z,18.65
2022-09-04T20:13:35.980Z,18.58
2022-09-04T20:16:07.528Z,18.55
2022-09-04T20:18:41.333Z,18.56
2022-09-04T20:21:12.864Z,18.52
2022-09-04T20:23:44.887Z,18.48
2022-09-04T20:26:16.928Z,18.45
2022-09-04T20:28:49.729Z,18.42
2022-09-04T20:31:36.195Z,18.37
2022-09-04T20:34:09.761Z,18.32
2022-09-04T20:36:48.811Z,18.34
2022-09-04T20:39:21.064Z,18.33
2022-09-04T20:41:52.580Z,18.30
2022-09-04T20:44:24.822Z,18.25
2022-09-04T20:52:43.030Z,18.23
2022-09-04T20:52:50.478Z,18.19
2022-09-04T20:53:07.895Z,18.14
2022-09-04T20:55:33.993Z,18.10
2022-09-04T21:01:49.385Z,18.10
2022-09-04T21:03:23.005Z,18.07
2022-09-04T21:03:54.833Z,18.02
2022-09-04T21:06:28.644Z,18.00
2022-09-04T21:09:00.614Z,17.99
2022-09-04T21:11:40.862Z,17.94
2022-09-04T21:14:16.230Z,17.90
2022-09-04T21:16:48.422Z,17.91
2022-09-04T21:19:29.012Z,17.87
2022-09-04T21:22:01.839Z,17.86
2022-09-04T21:24:36.788Z,17.84
2022-09-04T21:27:09.451Z,17.81
2022-09-04T21:29:40.985Z,17.83
2022-09-04T21:32:13.042Z,17.81
2022-09-04T21:34:44.689Z,17.75
2022-09-04T21:37:16.263Z,17.72
2022-09-04T21:39:47.997Z,17.71
2022-09-04T21:42:19.990Z,17.68
2022-09-04T21:44:52.510Z,17.64
2022-09-04T21:47:24.224Z,17.61
2022-09-04T21:49:59.573Z,17.59
2022-09-04T21:52:31.359Z,17.55
2022-09-04T21:56:52.092Z,17.52
2022-09-04T22:02:37.306Z,17.45
2022-09-04T22:02:46.079Z,17.50
2022-09-04T22:03:38.750Z,17.39
2022-09-04T22:06:10.719Z,17.44
2022-09-04T22:13:28.520Z,17.41
2022-09-04T22:13:32.891Z,17.39
2022-09-04T22:14:25.931Z,17.39
2022-09-04T22:16:57.752Z,17.38
2022-09-04T22:19:29.327Z,17.34
2022-09-04T22:22:03.311Z,17.31
2022-09-04T22:24:37.695Z,17.32
2022-09-04T22:27:13.209Z,17.30
2022-09-04T22:29:44.735Z,17.27
2022-09-04T22:32:20.299Z,17.25
2022-09-04T22:34:52.273Z,17.24
2022-09-04T22:37:24.384Z,17.20
2022-09-04T22:39:57.094Z,17.14
2022-09-04T22:42:28.969Z,17.08
2022-09-04T22:45:09.644Z,17.04
2022-09-04T22:47:42.722Z,17.02
2022-09-04T22:50:14.233Z,16.98
2022-09-04T22:52:46.061Z,16.97
2022-09-04T22:55:39.029Z,16.95
2022-09-04T22:58:09.420Z,16.88
2022-09-04T23:00:41.357Z,16.86
2022-09-04T23:03:15.959Z,16.83
2022-09-04T23:05:47.952Z,16.77
2022-09-04T23:13:43.266Z,16.72
2022-09-04T23:13:50.232Z,16.68
2022-09-04T23:14:07.715Z,16.61
2022-09-04T23:16:40.647Z,16.57
2022-09-04T23:24:05.999Z,16.55
2022-09-04T23:26:44.647Z,16.53
2022-09-04T23:26:58.482Z,16.47
2022-09-04T23:27:47.680Z,16.42
2022-09-04T23:30:27.011Z,16.37
2022-09-04T23:32:58.827Z,16.34
2022-09-04T23:35:31.133Z,16.29
2022-09-04T23:38:02.956Z,16.25
2022-09-04T23:40:35.301Z,16.22
2022-09-04T23:43:07.690Z,16.16
2022-09-04T23:45:48.603Z,16.12
2022-09-04T23:48:31.338Z,16.08
2022-09-04T23:51:03.225Z,16.06
2022-09-04T23:53:34.756Z,16.03
2022-09-04T23:56:06.651Z,16.01
2022-09-04T23:58:57.103Z,16.01
